createdAt,value
2018-09-21T00:00:30.457Z,13.80
2018-09-21T00:02:59.292Z,11.90
2018-09-21T00:05:27.888Z,11.83
2018-09-21T00:07:56.684Z,11.90
2018-09-21T00:10:25.597Z,9.97
2018-09-21T00:12:54.445Z,11.63
2018-09-21T00:15:23.346Z,20.27
2018-09-21T00:17:52.218Z,15.43
2018-09-21T00:20:21.181Z,15.77
2018-09-21T00:22:50.026Z,9.70
2018-09-21T00:25:18.888Z,12.10
2018-09-21T00:27:47.725Z,9.07
2018-09-21T00:30:16.577Z,11.13
2018-09-21T00:32:45.499Z,11.87
2018-09-21T00:35:14.339Z,11.03
2018-09-21T00:37:43.248Z,16.50
2018-09-21T00:40:12.716Z,10.60
2018-09-21T00:42:41.536Z,9.27
2018-09-21T00:45:10.469Z,11.47
2018-09-21T00:47:39.332Z,15.73
2018-09-21T00:50:08.225Z,10.10
2018-09-21T00:52:37.069Z,10.27
2018-09-21T00:55:06.129Z,12.63
2018-09-21T00:57:34.952Z,9.87
2018-09-21T01:00:03.955Z,9.77
2018-09-21T01:02:32.784Z,11.93
2018-09-21T01:05:01.658Z,11.03
2018-09-21T01:07:30.527Z,10.40
2018-09-21T01:09:59.376Z,9.03
2018-09-21T01:12:28.277Z,8.30
2018-09-21T01:14:57.148Z,11.07
2018-09-21T01:17:26.004Z,11.13
2018-09-21T01:19:55.067Z,9.17
2018-09-21T01:22:23.937Z,9.30
2018-09-21T01:24:52.768Z,8.20
2018-09-21T01:27:21.612Z,10.80
2018-09-21T01:29:50.445Z,8.63
2018-09-21T01:32:19.296Z,14.77
2018-09-21T01:34:48.135Z,12.10
2018-09-21T01:37:17.050Z,11.20
2018-09-21T01:39:45.892Z,10.83
2018-09-21T01:42:14.781Z,9.10
2018-09-21T01:44:43.635Z,12.83
2018-09-21T01:47:12.509Z,10.83
2018-09-21T01:49:41.406Z,11.67
2018-09-21T01:52:10.297Z,13.87
2018-09-21T01:54:39.149Z,16.00
2018-09-21T01:57:08.025Z,11.13
2018-09-21T01:59:36.901Z,13.43
2018-09-21T02:02:05.794Z,9.80
2018-09-21T02:04:39.807Z,10.87
2018-09-21T02:07:10.248Z,14.00
2018-09-21T02:09:39.266Z,8.60
2018-09-21T02:12:08.136Z,12.17
2018-09-21T02:14:36.996Z,9.30
2018-09-21T02:17:05.862Z,10.10
2018-09-21T02:19:34.799Z,12.50
2018-09-21T02:22:03.646Z,10.83
2018-09-21T02:24:32.490Z,10.70
2018-09-21T02:27:01.350Z,14.37
2018-09-21T02:29:30.197Z,14.47
2018-09-21T02:31:59.080Z,12.50
2018-09-21T02:34:27.929Z,11.80
2018-09-21T02:36:56.817Z,11.53
2018-09-21T02:39:25.664Z,10.87
2018-09-21T02:41:54.561Z,13.17
2018-09-21T02:44:23.422Z,9.73
2018-09-21T02:46:52.268Z,9.57
2018-09-21T02:49:21.132Z,11.60
2018-09-21T02:51:50.071Z,9.43
2018-09-21T02:54:18.910Z,12.17
2018-09-21T02:56:47.806Z,10.33
2018-09-21T02:59:16.673Z,12.27
2018-09-21T03:01:45.514Z,10.00
2018-09-21T03:04:14.420Z,11.37
2018-09-21T03:06:43.281Z,11.73
2018-09-21T03:09:12.177Z,9.17
2018-09-21T03:11:41.053Z,9.57
2018-09-21T03:14:09.981Z,10.73
2018-09-21T03:16:38.853Z,12.10
2018-09-21T03:19:07.745Z,10.57
2018-09-21T03:21:36.671Z,13.70
2018-09-21T03:24:05.673Z,12.67
2018-09-21T03:26:35.537Z,10.50
2018-09-21T03:29:04.492Z,11.67
2018-09-21T03:31:33.640Z,10.57
2018-09-21T03:34:02.528Z,11.67
2018-09-21T03:36:31.476Z,12.20
2018-09-21T03:39:00.324Z,14.67
2018-09-21T03:41:29.188Z,13.70
2018-09-21T03:43:58.062Z,15.73
2018-09-21T03:46:26.930Z,11.30
2018-09-21T03:48:55.761Z,10.93
2018-09-21T03:51:24.593Z,15.23
2018-09-21T03:53:53.466Z,11.80
2018-09-21T03:56:22.333Z,11.90
2018-09-21T03:58:51.210Z,12.37
2018-09-21T04:01:20.045Z,11.90
2018-09-21T04:03:48.931Z,11.47
2018-09-21T04:06:17.796Z,10.03
2018-09-21T04:08:46.637Z,10.67
2018-09-21T04:11:15.579Z,12.07
2018-09-21T04:13:44.419Z,11.97
2018-09-21T04:16:13.284Z,13.57
2018-09-21T04:18:42.125Z,9.30
2018-09-21T04:21:12.014Z,8.93
2018-09-21T04:23:40.859Z,10.17
2018-09-21T04:26:09.879Z,10.50
2018-09-21T04:28:38.705Z,9.57
2018-09-21T04:31:07.577Z,15.77
2018-09-21T04:33:36.497Z,14.93
2018-09-21T04:36:05.402Z,13.93
2018-09-21T04:38:34.380Z,15.83
2018-09-21T04:41:03.241Z,14.17
2018-09-21T04:43:32.244Z,18.07
2018-09-21T04:46:01.462Z,14.47
2018-09-21T04:48:30.260Z,13.83
2018-09-21T04:50:59.155Z,11.10
2018-09-21T04:53:28.728Z,8.97
2018-09-21T04:55:57.786Z,13.30
2018-09-21T04:58:26.649Z,10.73
2018-09-21T05:00:55.515Z,12.00
2018-09-21T05:03:24.366Z,17.93
2018-09-21T05:05:53.365Z,13.83
2018-09-21T05:08:22.255Z,11.93
2018-09-21T05:10:51.117Z,12.37
2018-09-21T05:13:19.997Z,20.27
2018-09-21T05:15:49.060Z,21.07
2018-09-21T05:18:17.942Z,13.87
2018-09-21T05:20:46.911Z,14.17
2018-09-21T05:23:15.776Z,12.00
2018-09-21T05:25:44.710Z,13.90
2018-09-21T05:28:14.542Z,17.00
2018-09-21T05:30:43.409Z,12.27
2018-09-21T05:33:12.250Z,11.50
2018-09-21T05:35:41.113Z,13.20
2018-09-21T05:38:10.003Z,16.30
2018-09-21T05:40:39.039Z,17.30
2018-09-21T05:43:07.965Z,11.67
2018-09-21T05:45:36.816Z,12.93
2018-09-21T05:48:05.650Z,13.63
2018-09-21T05:50:34.513Z,13.17
2018-09-21T05:53:03.373Z,15.97
2018-09-21T05:55:32.198Z,12.00
2018-09-21T05:58:01.033Z,12.60
2018-09-21T06:00:29.946Z,14.97
2018-09-21T06:02:58.945Z,17.40
2018-09-21T06:05:27.747Z,17.10
2018-09-21T06:07:56.580Z,16.90
2018-09-21T06:10:25.479Z,18.17
2018-09-21T06:12:54.332Z,12.93
2018-09-21T06:15:23.219Z,14.13
2018-09-21T06:17:52.060Z,15.50
2018-09-21T06:20:20.897Z,15.37
2018-09-21T06:22:49.829Z,17.70
2018-09-21T06:25:18.641Z,12.63
2018-09-21T06:27:47.528Z,9.43
2018-09-21T06:30:16.423Z,13.20
2018-09-21T06:32:45.377Z,15.00
2018-09-21T06:35:14.246Z,13.27
2018-09-21T06:37:43.107Z,17.40
2018-09-21T06:40:12.016Z,14.53
2018-09-21T06:42:40.961Z,11.60
2018-09-21T06:45:09.797Z,15.73
2018-09-21T06:47:38.677Z,12.87
2018-09-21T06:50:07.621Z,11.57
2018-09-21T06:52:36.520Z,11.73
2018-09-21T06:55:05.642Z,21.10
2018-09-21T06:57:34.510Z,18.37
2018-09-21T07:00:03.439Z,14.07
2018-09-21T07:02:32.352Z,17.67
2018-09-21T07:05:06.425Z,12.07
2018-09-21T07:07:35.457Z,13.43
2018-09-21T07:10:04.842Z,14.87
2018-09-21T07:12:33.636Z,11.23
2018-09-21T07:15:02.633Z,39.17
2018-09-21T07:17:31.536Z,32.00
2018-09-21T07:20:00.520Z,20.43
2018-09-21T07:22:29.406Z,29.97
2018-09-21T07:24:58.244Z,44.47
2018-09-21T07:27:27.242Z,17.00
2018-09-21T07:29:56.069Z,23.97
2018-09-21T07:32:25.068Z,15.60
2018-09-21T07:34:54.489Z,14.37
2018-09-21T07:37:23.434Z,16.37
2018-09-21T07:39:52.257Z,13.93
2018-09-21T07:42:21.262Z,17.23
2018-09-21T07:44:50.225Z,13.43
2018-09-21T07:47:19.083Z,11.40
2018-09-21T07:49:47.949Z,12.37
2018-09-21T07:52:16.785Z,19.87
2018-09-21T07:54:45.639Z,22.77
2018-09-21T07:57:14.489Z,14.47
2018-09-21T07:59:43.326Z,11.40
2018-09-21T08:02:12.161Z,17.30
2018-09-21T08:04:41.072Z,11.97
2018-09-21T08:07:10.048Z,13.20
2018-09-21T08:09:38.924Z,12.20
2018-09-21T08:12:07.763Z,14.10
2018-09-21T08:14:36.680Z,14.07
2018-09-21T08:17:05.896Z,11.93
2018-09-21T08:19:34.799Z,12.27
2018-09-21T08:22:03.557Z,13.67
2018-09-21T08:24:32.445Z,9.07
2018-09-21T08:27:01.327Z,10.20
2018-09-21T08:29:30.182Z,13.87
2018-09-21T08:31:59.058Z,14.50
2018-09-21T08:34:27.925Z,14.33
2018-09-21T08:36:56.751Z,15.03
2018-09-21T08:39:26.700Z,13.60
2018-09-21T08:41:55.692Z,17.07
2018-09-21T08:44:24.600Z,12.37
2018-09-21T08:46:53.468Z,11.33
2018-09-21T08:49:22.304Z,17.60
2018-09-21T08:51:51.186Z,10.53
2018-09-21T08:54:20.027Z,9.03
2018-09-21T08:56:48.930Z,12.20
2018-09-21T08:59:17.797Z,15.23
2018-09-21T09:01:46.644Z,19.57
2018-09-21T09:04:15.517Z,16.23
2018-09-21T09:06:44.383Z,14.87
2018-09-21T09:09:13.299Z,11.73
2018-09-21T09:11:42.302Z,15.57
2018-09-21T09:14:23.681Z,13.03
2018-09-21T09:16:52.232Z,6.53
2018-09-21T09:19:20.690Z,13.43
2018-09-21T09:21:49.168Z,14.90
2018-09-21T09:24:17.639Z,12.90
2018-09-21T09:26:46.099Z,12.43
2018-09-21T09:29:14.583Z,10.33
2018-09-21T09:31:43.032Z,9.70
2018-09-21T09:34:11.560Z,17.03
2018-09-21T09:36:40.044Z,13.03
2018-09-21T09:39:09.870Z,9.90
2018-09-21T09:41:38.363Z,7.80
2018-09-21T09:44:06.875Z,13.57
2018-09-21T09:46:35.365Z,12.87
2018-09-21T09:49:04.018Z,13.73
2018-09-21T09:51:32.348Z,11.93
2018-09-21T09:54:01.166Z,18.20
2018-09-21T09:56:29.622Z,9.87
2018-09-21T09:58:58.098Z,13.77
2018-09-21T10:01:26.588Z,11.53
2018-09-21T10:03:55.122Z,13.70
2018-09-21T10:06:23.526Z,10.80
2018-09-21T10:08:51.978Z,13.13
2018-09-21T10:11:20.469Z,9.90
2018-09-21T10:13:48.929Z,12.07
2018-09-21T10:16:17.434Z,9.43
2018-09-21T10:18:45.945Z,6.23
2018-09-21T10:21:14.434Z,14.70
2018-09-21T10:23:42.900Z,15.10
2018-09-21T10:26:11.662Z,8.63
2018-09-21T10:28:40.441Z,9.67
2018-09-21T10:31:08.726Z,7.27
2018-09-21T10:33:37.299Z,12.83
2018-09-21T10:36:05.708Z,6.10
2018-09-21T10:38:34.185Z,11.87
2018-09-21T10:41:02.657Z,17.93
2018-09-21T10:43:31.122Z,10.00
2018-09-21T10:45:59.646Z,13.43
2018-09-21T10:48:28.116Z,8.30
2018-09-21T10:50:57.531Z,19.13
2018-09-21T10:53:26.089Z,11.10
2018-09-21T10:55:54.580Z,9.47
2018-09-21T10:58:23.057Z,8.73
2018-09-21T11:00:51.590Z,9.73
2018-09-21T11:03:20.082Z,13.37
2018-09-21T11:05:48.608Z,60.20
2018-09-21T11:08:17.081Z,49.63
2018-09-21T11:10:45.596Z,25.67
2018-09-21T11:13:14.691Z,31.43
2018-09-21T11:15:43.384Z,55.30
2018-09-21T11:18:11.962Z,30.60
2018-09-21T11:20:40.453Z,30.90
2018-09-21T11:23:08.988Z,29.37
2018-09-21T11:25:37.471Z,14.23
2018-09-21T11:28:05.961Z,10.23
2018-09-21T11:30:34.429Z,17.70
2018-09-21T11:33:03.120Z,18.27
2018-09-21T11:35:31.556Z,9.70
2018-09-21T11:38:00.109Z,13.37
2018-09-21T11:40:28.650Z,13.60
2018-09-21T11:42:57.181Z,9.23
2018-09-21T11:45:25.648Z,15.90
2018-09-21T11:47:54.163Z,11.03
2018-09-21T11:50:22.644Z,9.67
2018-09-21T11:52:51.137Z,7.27
2018-09-21T11:55:20.063Z,13.73
2018-09-21T11:57:48.514Z,14.73
2018-09-21T12:00:16.976Z,9.10
2018-09-21T12:02:45.455Z,13.33
2018-09-21T12:05:13.945Z,20.27
2018-09-21T12:07:42.428Z,10.07
2018-09-21T12:10:10.896Z,8.27
2018-09-21T12:12:39.389Z,9.43
2018-09-21T12:15:07.895Z,8.17
2018-09-21T12:17:36.392Z,9.20
2018-09-21T12:20:05.233Z,7.43
2018-09-21T12:22:33.751Z,6.50
2018-09-21T12:25:03.032Z,5.93
2018-09-21T12:27:31.479Z,8.47
2018-09-21T12:29:59.946Z,5.70
2018-09-21T12:32:28.437Z,6.13
2018-09-21T12:34:56.906Z,8.47
2018-09-21T12:37:25.386Z,6.23
2018-09-21T12:39:53.924Z,9.60
2018-09-21T12:42:22.483Z,10.17
2018-09-21T12:44:50.888Z,7.47
2018-09-21T12:47:19.368Z,10.03
2018-09-21T12:49:47.832Z,7.57
2018-09-21T12:52:16.314Z,13.47
2018-09-21T12:54:44.798Z,11.07
2018-09-21T12:57:13.297Z,9.03
2018-09-21T12:59:41.801Z,29.70
2018-09-21T13:02:10.460Z,12.30
2018-09-21T13:04:38.943Z,8.73
2018-09-21T13:07:07.405Z,5.53
2018-09-21T13:09:36.516Z,11.53
2018-09-21T13:12:05.934Z,5.67
2018-09-21T13:14:34.422Z,13.07
2018-09-21T13:17:02.877Z,8.37
2018-09-21T13:19:31.359Z,10.23
2018-09-21T13:21:59.822Z,6.50
2018-09-21T13:24:28.326Z,10.43
2018-09-21T13:26:56.793Z,5.30
2018-09-21T13:29:25.252Z,9.57
2018-09-21T13:31:53.708Z,6.37
2018-09-21T13:34:22.185Z,11.60
2018-09-21T13:36:50.725Z,9.73
2018-09-21T13:39:19.236Z,7.20
2018-09-21T13:41:47.689Z,12.97
2018-09-21T13:44:16.161Z,14.30
2018-09-21T13:46:44.634Z,6.97
2018-09-21T13:49:13.125Z,5.90
2018-09-21T13:51:41.590Z,10.07
2018-09-21T13:54:10.086Z,7.97
2018-09-21T13:56:38.571Z,10.93
2018-09-21T13:59:07.065Z,6.57
2018-09-21T14:01:35.490Z,9.60
2018-09-21T14:04:03.988Z,9.23
2018-09-21T14:06:32.508Z,15.27
2018-09-21T14:09:00.986Z,20.33
2018-09-21T14:11:29.737Z,10.50
2018-09-21T14:13:58.645Z,12.47
2018-09-21T14:16:28.102Z,3.73
2018-09-21T14:18:56.888Z,4.73
2018-09-21T14:21:25.408Z,4.53
2018-09-21T14:23:53.861Z,3.40
2018-09-21T14:26:22.364Z,5.20
2018-09-21T14:28:50.848Z,3.13
2018-09-21T14:31:19.297Z,3.90
2018-09-21T14:33:47.788Z,2.17
2018-09-21T14:36:16.272Z,3.30
2018-09-21T14:38:44.732Z,8.27
2018-09-21T14:41:13.223Z,4.90
2018-09-21T14:43:41.713Z,4.27
2018-09-21T14:46:10.192Z,3.00
2018-09-21T14:48:38.658Z,8.30
2018-09-21T14:51:07.157Z,4.83
2018-09-21T14:53:36.609Z,5.70
2018-09-21T14:56:05.065Z,4.37
2018-09-21T14:58:33.516Z,5.50
2018-09-21T15:01:01.983Z,5.40
2018-09-21T15:03:30.467Z,6.83
2018-09-21T15:05:59.928Z,4.90
2018-09-21T15:08:28.574Z,6.73
2018-09-21T15:10:57.031Z,5.00
2018-09-21T15:13:25.477Z,5.83
2018-09-21T15:15:53.976Z,7.90
2018-09-21T15:18:22.453Z,8.23
2018-09-21T15:20:50.951Z,5.57
2018-09-21T15:23:19.437Z,5.47
2018-09-21T15:25:47.905Z,5.73
2018-09-21T15:28:16.369Z,3.93
2018-09-21T15:30:44.856Z,3.87
2018-09-21T15:33:13.324Z,6.00
2018-09-21T15:35:41.793Z,5.20
2018-09-21T15:38:10.453Z,4.50
2018-09-21T15:40:38.931Z,6.77
2018-09-21T15:43:07.418Z,6.83
2018-09-21T15:45:35.965Z,5.47
2018-09-21T15:48:04.415Z,8.63
2018-09-21T15:50:32.921Z,6.90
2018-09-21T15:53:01.449Z,4.97
2018-09-21T15:55:29.916Z,7.33
2018-09-21T15:57:58.404Z,7.50
2018-09-21T16:00:26.935Z,7.87
2018-09-21T16:02:55.452Z,8.27
2018-09-21T16:05:24.057Z,10.57
2018-09-21T16:07:52.524Z,6.93
2018-09-21T16:10:21.014Z,5.77
2018-09-21T16:12:49.514Z,5.53
2018-09-21T16:15:18.010Z,3.63
2018-09-21T16:17:46.538Z,4.83
2018-09-21T16:20:15.066Z,5.00
2018-09-21T16:22:43.688Z,6.57
2018-09-21T16:25:12.161Z,7.60
2018-09-21T16:27:40.734Z,8.53
2018-09-21T16:30:09.659Z,6.70
2018-09-21T16:32:38.469Z,6.60
2018-09-21T16:35:07.248Z,5.20
2018-09-21T16:37:35.773Z,2.40
2018-09-21T16:40:04.249Z,5.47
2018-09-21T16:42:32.719Z,7.80
2018-09-21T16:45:01.194Z,7.03
2018-09-21T16:47:29.653Z,6.10
2018-09-21T16:49:58.125Z,7.97
2018-09-21T16:52:26.651Z,9.13
2018-09-21T16:54:55.110Z,5.80
2018-09-21T16:57:23.633Z,5.60
2018-09-21T16:59:52.047Z,8.27
2018-09-21T17:02:20.530Z,6.07
2018-09-21T17:04:49.060Z,7.50
2018-09-21T17:07:17.914Z,4.73
2018-09-21T17:09:47.999Z,6.30
2018-09-21T17:12:16.998Z,8.13
2018-09-21T17:14:45.450Z,6.87
2018-09-21T17:17:13.981Z,5.90
2018-09-21T17:19:42.475Z,8.37
2018-09-21T17:22:10.908Z,7.90
2018-09-21T17:24:39.367Z,8.73
2018-09-21T17:27:07.867Z,8.77
2018-09-21T17:29:36.377Z,10.07
2018-09-21T17:32:04.864Z,6.73
2018-09-21T17:34:33.336Z,7.03
2018-09-21T17:37:01.897Z,6.13
2018-09-21T17:39:30.281Z,6.53
2018-09-21T17:41:58.767Z,8.53
2018-09-21T17:44:27.219Z,7.80
2018-09-21T17:46:55.779Z,6.53
2018-09-21T17:49:24.211Z,8.20
2018-09-21T17:51:52.723Z,11.03
2018-09-21T17:54:21.237Z,7.50
2018-09-21T17:56:49.732Z,6.77
2018-09-21T17:59:18.239Z,10.90
2018-09-21T18:01:46.715Z,7.80
2018-09-21T18:04:15.197Z,5.47
2018-09-21T18:06:43.753Z,8.33
2018-09-21T18:09:12.255Z,8.80
2018-09-21T18:11:40.722Z,10.10
2018-09-21T18:14:09.245Z,7.80
2018-09-21T18:16:37.705Z,6.90
2018-09-21T18:19:06.205Z,4.67
2018-09-21T18:21:34.688Z,8.80
2018-09-21T18:24:03.174Z,8.50
2018-09-21T18:26:31.657Z,12.13
2018-09-21T18:29:00.137Z,12.73
2018-09-21T18:31:28.717Z,5.93
2018-09-21T18:33:57.277Z,11.10
2018-09-21T18:36:25.969Z,9.90
2018-09-21T18:38:54.505Z,8.83
2018-09-21T18:41:23.002Z,7.37
2018-09-21T18:43:51.517Z,9.23
2018-09-21T18:46:20.214Z,7.17
2018-09-21T18:48:48.790Z,5.90
2018-09-21T18:51:17.277Z,9.43
2018-09-21T18:53:45.785Z,29.67
2018-09-21T18:56:14.306Z,29.47
2018-09-21T18:58:42.833Z,21.20
2018-09-21T19:01:11.353Z,23.83
2018-09-21T19:03:40.766Z,23.37
2018-09-21T19:06:09.361Z,9.63
2018-09-21T19:08:37.887Z,13.37
2018-09-21T19:11:06.565Z,11.23
2018-09-21T19:13:35.080Z,12.67
2018-09-21T19:16:03.812Z,9.53
2018-09-21T19:18:32.605Z,11.10
2018-09-21T19:21:01.104Z,7.70
2018-09-21T19:23:29.577Z,8.07
2018-09-21T19:25:58.066Z,23.93
2018-09-21T19:28:26.565Z,40.33
2018-09-21T19:30:56.396Z,71.43
2018-09-21T19:33:25.238Z,52.73
2018-09-21T19:35:53.777Z,32.50
2018-09-21T19:38:23.365Z,12.93
2018-09-21T19:40:52.356Z,14.73
2018-09-21T19:43:22.530Z,15.93
2018-09-21T19:45:51.158Z,14.40
2018-09-21T19:48:20.693Z,10.57
2018-09-21T19:50:50.086Z,12.37
2018-09-21T19:53:19.216Z,13.53
2018-09-21T19:55:48.119Z,10.43
2018-09-21T19:58:16.688Z,12.83
2018-09-21T20:00:45.145Z,9.03
2018-09-21T20:03:14.027Z,8.30
2018-09-21T20:05:42.546Z,5.13
2018-09-21T20:08:12.350Z,8.43
2018-09-21T20:10:41.147Z,5.97
2018-09-21T20:13:09.768Z,5.67
2018-09-21T20:15:38.225Z,6.53
2018-09-21T20:18:07.134Z,12.63
2018-09-21T20:20:35.610Z,36.03
2018-09-21T20:23:04.085Z,85.63
2018-09-21T20:25:32.634Z,122.13
2018-09-21T20:28:01.120Z,17.53
2018-09-21T20:30:35.120Z,20.80
2018-09-21T20:33:08.918Z,20.43
2018-09-21T20:35:37.685Z,10.30
2018-09-21T20:38:06.157Z,23.90
2018-09-21T20:40:34.655Z,12.87
2018-09-21T20:43:03.160Z,12.57
2018-09-21T20:45:31.724Z,13.37
2018-09-21T20:48:00.280Z,13.77
2018-09-21T20:50:28.977Z,11.17
2018-09-21T20:52:57.518Z,10.03
2018-09-21T20:55:26.052Z,7.77
2018-09-21T20:57:55.627Z,9.73
2018-09-21T21:00:24.240Z,11.23
2018-09-21T21:02:52.781Z,11.87
2018-09-21T21:05:21.585Z,11.33
2018-09-21T21:07:50.154Z,9.77
2018-09-21T21:10:18.652Z,11.10
2018-09-21T21:12:47.211Z,8.20
2018-09-21T21:15:15.849Z,9.37
2018-09-21T21:17:44.316Z,10.37
2018-09-21T21:20:12.803Z,10.53
2018-09-21T21:22:41.305Z,11.93
2018-09-21T21:25:09.838Z,8.83
2018-09-21T21:27:38.718Z,7.03
2018-09-21T21:30:07.312Z,7.33
2018-09-21T21:32:35.962Z,8.73
2018-09-21T21:35:04.671Z,8.47
2018-09-21T21:37:33.238Z,8.63
2018-09-21T21:40:01.822Z,29.57
2018-09-21T21:42:30.608Z,64.20
2018-09-21T21:44:59.805Z,44.43
2018-09-21T21:47:28.508Z,53.93
2018-09-21T21:49:57.015Z,33.83
2018-09-21T21:52:25.493Z,25.70
2018-09-21T21:54:54.293Z,27.17
2018-09-21T21:57:22.988Z,15.00
2018-09-21T21:59:51.564Z,12.33
2018-09-21T22:02:20.124Z,10.83
2018-09-21T22:04:48.672Z,7.37
2018-09-21T22:07:17.171Z,7.13
2018-09-21T22:09:45.629Z,8.23
2018-09-21T22:12:19.502Z,4.67
2018-09-21T22:14:47.977Z,5.40
2018-09-21T22:17:16.480Z,8.00
2018-09-21T22:19:44.958Z,3.27
2018-09-21T22:22:13.453Z,7.13
2018-09-21T22:24:41.944Z,5.43
2018-09-21T22:27:10.445Z,5.23
2018-09-21T22:29:38.966Z,8.37
2018-09-21T22:32:07.473Z,5.63
2018-09-21T22:34:35.940Z,5.43
2018-09-21T22:37:04.463Z,5.37
2018-09-21T22:39:32.933Z,5.63
2018-09-21T22:42:01.468Z,7.57
2018-09-21T22:44:29.949Z,4.70
2018-09-21T22:46:58.449Z,7.03
2018-09-21T22:49:26.944Z,4.63
2018-09-21T22:51:55.425Z,4.67
2018-09-21T22:54:23.964Z,6.97
2018-09-21T22:56:52.424Z,4.53
2018-09-21T22:59:20.907Z,6.60
2018-09-21T23:01:49.408Z,4.77
2018-09-21T23:04:17.909Z,5.00
2018-09-21T23:06:46.480Z,16.23
2018-09-21T23:09:15.037Z,29.43
2018-09-21T23:11:43.541Z,44.97
2018-09-21T23:14:12.047Z,26.60
2018-09-21T23:16:40.863Z,21.43
2018-09-21T23:19:09.797Z,29.40
2018-09-21T23:21:38.489Z,19.23
2018-09-21T23:24:07.226Z,20.33
2018-09-21T23:26:35.712Z,16.20
2018-09-21T23:29:04.186Z,15.57
2018-09-21T23:31:32.755Z,13.37
2018-09-21T23:34:01.207Z,11.20
2018-09-21T23:36:29.707Z,11.97
2018-09-21T23:38:59.220Z,12.53
2018-09-21T23:41:27.702Z,16.07
2018-09-21T23:43:56.184Z,10.13
2018-09-21T23:46:24.691Z,8.30
2018-09-21T23:48:53.132Z,9.70
2018-09-21T23:51:21.628Z,7.23
2018-09-21T23:53:50.121Z,8.27
2018-09-21T23:56:18.669Z,11.53
2018-09-21T23:58:47.328Z,7.77
